Terminal Aerodrome Forecast
Issued by NWS Sioux Falls, SD

Home | Current Version | Previous Version | Text Only | Print | Product List | Glossary Off
Versions: 1 2 3 4 5 6 7 8 9 10 11 12 13 14 15 16 17 18 19 20 21 22 23 24 25 26 27 28

000
FTUS43 KFSD 231122
TAFSUX
TAF
KSUX 231122Z 2312/2412 VRB05KT P6SM SKC
     FM231430 21010KT P6SM FEW250
     FM231800 20016G24KT P6SM FEW250
     FM240100 17012KT P6SM FEW250
     FM240400 16011KT P6SM SCT250 WS010/20043KT=

USA.gov is the U.S. government's official web portal to all federal, state and local government web resources and services.